Time;durP1;ratioP1;P1;durP2;ratioP2;P2;SDS_P1;SDS_P2;PMS_P1;PMS_P2;Temp;Humidity;BMP_temperature;BMP_pressure;BME280_temperature;BME280_humidity;BME280_pressure;Samples;Min_cycle;Max_cycle;Signal;HPM_P1;HPM_P2
2023/04/01 00:03:47;;;;;;;;;;;;;;;7.03;100.00;94437.22;10517456;28;2049;-72
2023/04/01 00:08:49;;;;;;;;;;;;;;;6.95;100.00;94447.72;10523798;28;1935;-74
2023/04/01 00:13:54;;;;;;;;;;;;;;;6.93;100.00;94441.84;10514907;28;1946;-75
2023/04/01 00:18:56;;;;;;;;;;;;;;;6.90;100.00;94424.53;10508500;28;2196;-77
2023/04/01 00:23:59;;;;;;;;;;;;;;;6.82;100.00;94419.03;10519063;28;1988;-74
2023/04/01 00:29:02;;;;;;;;;;;;;;;6.83;100.00;94425.94;10527875;28;1928;-73
2023/04/01 00:34:04;;;;;;;;;;;;;;;6.66;100.00;94418.34;10520956;28;2011;-71
2023/04/01 00:39:07;;;;;;;;;;;;;;;6.63;100.00;94422.41;10514990;28;2119;-74
2023/04/01 00:44:10;;;;;;;;;;;;;;;6.61;100.00;94429.09;10525030;28;2103;-74
2023/04/01 00:49:15;;;;;;;;;;;;;;;6.59;100.00;94426.69;10515541;28;2022;-72
2023/04/01 00:54:17;;;;;;;;;;;;;;;6.60;100.00;94432.84;10513326;28;2003;-71
2023/04/01 00:59:21;;;;;;;;;;;;;;;6.60;100.00;94428.28;10519297;28;2084;-71
2023/04/01 01:04:26;;;;;;;;;;;;;;;6.72;100.00;94425.25;10519674;28;1983;-70
2023/04/01 01:09:29;;;;;;;;;;;;;;;6.78;100.00;94414.22;10519713;28;1982;-71
2023/04/01 01:14:32;;;;;;;;;;;;;;;6.80;100.00;94413.94;10517688;28;2002;-71
2023/04/01 01:19:34;;;;;;;;;;;;;;;6.75;100.00;94430.84;10510271;28;1931;-71
2023/04/01 01:24:37;;;;;;;;;;;;;;;6.74;100.00;94431.91;10516012;28;2054;-71
2023/04/01 01:29:41;;;;;;;;;;;;;;;6.73;100.00;94421.50;10510418;28;2046;-69
2023/04/01 01:34:45;;;;;;;;;;;;;;;6.80;100.00;94421.94;10517471;28;2000;-71
2023/04/01 01:39:47;;;;;;;;;;;;;;;6.73;100.00;94403.59;10520721;28;2009;-71
2023/04/01 01:44:50;;;;;;;;;;;;;;;6.70;100.00;94406.03;10531314;28;2046;-71
2023/04/01 01:49:52;;;;;;;;;;;;;;;6.74;100.00;94407.06;10522846;28;2106;-71
2023/04/01 01:54:55;;;;;;;;;;;;;;;6.69;100.00;94409.81;10530392;28;1795;-70
2023/04/01 01:59:58;;;;;;;;;;;;;;;6.74;100.00;94410.56;10529745;28;2205;-73
2023/04/01 02:05:00;;;;;;;;;;;;;;;6.83;100.00;94416.06;10520509;28;2006;-71
2023/04/01 02:10:03;;;;;;;;;;;;;;;6.84;100.00;94408.84;10515138;28;2050;-70
2023/04/01 02:15:06;;;;;;;;;;;;;;;6.82;100.00;94414.47;10519156;28;1963;-71
2023/04/01 02:20:14;;;;;;;;;;;;;;;6.82;100.00;94414.47;10513239;28;2230;-72
2023/04/01 02:25:17;;;;;;;;;;;;;;;6.83;100.00;94410.72;10495688;28;1951;-69
2023/04/01 02:30:19;;;;;;;;;;;;;;;6.77;100.00;94428.66;10513515;28;2104;-69
2023/04/01 02:35:22;;;;;;;;;;;;;;;6.83;100.00;94425.94;10514826;28;1967;-71
2023/04/01 02:40:24;;;;;;;;;;;;;;;6.73;100.00;94424.97;10513122;28;1954;-74
2023/04/01 02:45:27;;;;;;;;;;;;;;;6.73;100.00;94434.84;10511539;28;1974;-71
2023/04/01 02:50:30;;;;;;;;;;;;;;;6.78;100.00;94434.81;10515963;28;2105;-70
2023/04/01 02:55:32;;;;;;;;;;;;;;;6.73;100.00;94426.84;10512341;28;2155;-70
2023/04/01 03:00:36;;;;;;;;;;;;;;;6.81;100.00;94450.28;10517011;28;2013;-70
2023/04/01 03:05:38;;;;;;;;;;;;;;;6.89;100.00;94440.84;10509773;28;2089;-69
2023/04/01 03:10:41;;;;;;;;;;;;;;;6.86;100.00;94441.41;10511834;28;2081;-70
2023/04/01 03:15:44;;;;;;;;;;;;;;;6.82;100.00;94433.16;10501976;28;1998;-70
2023/04/01 03:20:47;;;;;;;;;;;;;;;6.87;100.00;94437.66;10509802;28;2059;-71
2023/04/01 03:25:50;;;;;;;;;;;;;;;6.85;100.00;94429.91;10507997;28;2186;-70
2023/04/01 03:31:02;;;;;;;;;;;;;;;6.64;100.00;94439.22;10511067;28;2014;-71
2023/04/01 03:36:06;;;;;;;;;;;;;;;6.50;100.00;94452.41;10507858;28;1919;-72
2023/04/01 03:41:08;;;;;;;;;;;;;;;6.47;100.00;94456.44;10521311;28;1939;-72
2023/04/01 03:46:12;;;;;;;;;;;;;;;6.34;100.00;94457.06;10512051;28;1988;-72
2023/04/01 03:51:14;;;;;;;;;;;;;;;6.31;100.00;94457.63;10507546;28;2180;-71
2023/04/01 03:56:17;;;;;;;;;;;;;;;6.35;100.00;94466.66;10508311;28;2091;-72
2023/04/01 04:01:20;;;;;;;;;;;;;;;6.42;100.00;94475.16;10515276;28;2307;-72
2023/04/01 04:06:23;;;;;;;;;;;;;;;6.34;100.00;94473.09;10516628;28;1971;-71
2023/04/01 04:11:26;;;;;;;;;;;;;;;6.30;100.00;94474.72;10507407;28;1938;-70
2023/04/01 04:16:28;;;;;;;;;;;;;;;6.20;100.00;94477.47;10509614;28;1975;-72
2023/04/01 04:21:30;;;;;;;;;;;;;;;6.31;100.00;94479.00;10513987;28;1968;-71
2023/04/01 04:26:34;;;;;;;;;;;;;;;6.40;100.00;94460.50;10513786;28;2130;-71
2023/04/01 04:31:36;;;;;;;;;;;;;;;6.39;100.00;94474.94;10535726;28;2002;-74
2023/04/01 04:36:39;;;;;;;;;;;;;;;6.37;100.00;94474.41;10520103;28;2065;-70
2023/04/01 04:41:41;;;;;;;;;;;;;;;6.47;100.00;94477.00;10516081;28;1985;-73
2023/04/01 04:46:44;;;;;;;;;;;;;;;6.63;100.00;94486.47;10516288;28;2245;-71
2023/04/01 04:51:47;;;;;;;;;;;;;;;6.69;100.00;94497.91;10521694;28;2145;-72
2023/04/01 04:56:50;;;;;;;;;;;;;;;6.71;100.00;94493.09;10520260;28;1979;-73
2023/04/01 05:01:52;;;;;;;;;;;;;;;6.82;100.00;94494.59;10519043;28;1995;-72
2023/04/01 05:06:55;;;;;;;;;;;;;;;6.88;100.00;94498.81;10514262;28;2010;-72
2023/04/01 05:11:58;;;;;;;;;;;;;;;6.93;100.00;94489.94;10515119;28;1970;-72
2023/04/01 05:17:00;;;;;;;;;;;;;;;7.07;100.00;94488.22;10518945;28;1977;-72
2023/04/01 05:22:03;;;;;;;;;;;;;;;7.04;100.00;94484.22;10522023;28;1812;-70
2023/04/01 05:27:05;;;;;;;;;;;;;;;7.22;100.00;94484.59;10523545;28;1977;-71
2023/04/01 05:32:07;;;;;;;;;;;;;;;7.18;100.00;94475.53;10516656;28;2058;-72
2023/04/01 05:37:10;;;;;;;;;;;;;;;7.32;100.00;94484.50;10514131;28;2039;-69
2023/04/01 05:42:13;;;;;;;;;;;;;;;7.39;100.00;94476.94;10519910;28;1884;-72
2023/04/01 05:47:15;;;;;;;;;;;;;;;7.42;100.00;94475.53;10519037;28;2078;-70
2023/04/01 05:52:19;;;;;;;;;;;;;;;7.48;100.00;94483.22;10510042;28;1981;-71
2023/04/01 05:57:21;;;;;;;;;;;;;;;7.64;100.00;94480.38;10515020;28;1980;-72
2023/04/01 06:02:24;;;;;;;;;;;;;;;7.55;100.00;94486.34;10511251;28;1979;-71
2023/04/01 06:07:26;;;;;;;;;;;;;;;7.63;100.00;94484.13;10514467;28;2113;-71
2023/04/01 06:12:29;;;;;;;;;;;;;;;7.66;100.00;94486.22;10512738;28;1965;-71
2023/04/01 06:17:32;;;;;;;;;;;;;;;7.61;100.00;94486.28;10516486;28;1963;-73
2023/04/01 06:22:34;;;;;;;;;;;;;;;7.55;100.00;94475.66;10511329;28;2029;-74
2023/04/01 06:27:37;;;;;;;;;;;;;;;7.86;100.00;94480.63;10510478;28;2303;-71
2023/04/01 06:32:39;;;;;;;;;;;;;;;7.83;100.00;94473.19;10518072;28;1962;-73
2023/04/01 06:37:42;;;;;;;;;;;;;;;7.95;100.00;94478.91;10512268;28;1994;-72
2023/04/01 06:42:45;;;;;;;;;;;;;;;7.95;100.00;94481.59;10515636;28;1895;-73
2023/04/01 06:47:48;;;;;;;;;;;;;;;7.97;100.00;94484.75;10515125;28;1981;-72
2023/04/01 06:52:52;;;;;;;;;;;;;;;8.09;100.00;94476.31;10518588;28;1920;-70
2023/04/01 06:57:55;;;;;;;;;;;;;;;8.34;100.00;94492.00;10513786;28;1966;-71
2023/04/01 07:02:58;;;;;;;;;;;;;;;8.94;100.00;94496.72;10490886;28;2151;-70
2023/04/01 07:08:01;;;;;;;;;;;;;;;9.24;100.00;94497.28;10502670;28;2069;-71
2023/04/01 07:13:11;;;;;;;;;;;;;;;9.20;100.00;94491.69;10511962;28;2043;-72
2023/04/01 07:18:16;;;;;;;;;;;;;;;8.91;100.00;94506.16;10517513;28;1967;-71
2023/04/01 07:23:19;;;;;;;;;;;;;;;8.97;100.00;94488.09;10514751;28;2078;-71
2023/04/01 07:28:22;;;;;;;;;;;;;;;9.52;100.00;94482.78;10511714;28;1962;-72
2023/04/01 07:33:25;;;;;;;;;;;;;;;9.40;100.00;94485.16;10517707;28;2074;-72
2023/04/01 07:38:27;;;;;;;;;;;;;;;9.71;100.00;94496.09;10510765;28;2124;-75
2023/04/01 07:43:30;;;;;;;;;;;;;;;10.23;100.00;94492.06;10513243;28;1971;-75
2023/04/01 07:48:32;;;;;;;;;;;;;;;10.28;100.00;94500.03;10511873;28;1982;-72
2023/04/01 07:53:35;;;;;;;;;;;;;;;10.48;100.00;94487.25;10517487;28;2145;-72
2023/04/01 07:58:37;;;;;;;;;;;;;;;10.10;100.00;94492.88;10524533;28;1986;-72
2023/04/01 08:03:40;;;;;;;;;;;;;;;10.45;100.00;94498.59;10520967;28;2061;-72
2023/04/01 08:08:43;;;;;;;;;;;;;;;10.17;100.00;94482.50;10517074;28;1951;-72
2023/04/01 08:13:45;;;;;;;;;;;;;;;10.38;100.00;94492.84;10520758;28;1958;-72
2023/04/01 08:18:48;;;;;;;;;;;;;;;10.62;100.00;94503.31;10520950;28;2050;-74
2023/04/01 08:23:51;;;;;;;;;;;;;;;10.62;100.00;94490.66;10520422;28;2126;-71
2023/04/01 08:28:54;;;;;;;;;;;;;;;11.12;100.00;94490.53;10519821;28;1974;-73
2023/04/01 08:33:57;;;;;;;;;;;;;;;10.86;100.00;94482.31;10501318;28;1982;-72
2023/04/01 08:38:59;;;;;;;;;;;;;;;10.92;100.00;94475.69;10522754;28;2026;-72
2023/04/01 08:44:12;;;;;;;;;;;;;;;11.24;100.00;94465.75;10518291;28;1974;-73
2023/04/01 08:49:15;;;;;;;;;;;;;;;11.42;98.71;94466.63;10519579;28;1969;-73
2023/04/01 08:54:18;;;;;;;;;;;;;;;11.47;99.48;94471.88;10513114;28;2029;-72
2023/04/01 08:59:20;;;;;;;;;;;;;;;11.37;97.62;94459.47;10516257;28;2009;-75
2023/04/01 09:04:23;;;;;;;;;;;;;;;11.74;97.15;94471.66;10516883;28;1995;-73
2023/04/01 09:09:26;;;;;;;;;;;;;;;11.54;95.97;94464.16;10513613;28;2024;-72
2023/04/01 09:14:30;;;;;;;;;;;;;;;12.00;96.31;94487.13;10496370;28;2080;-72
2023/04/01 09:19:32;;;;;;;;;;;;;;;12.40;92.73;94467.03;10518137;28;2104;-74
2023/04/01 09:24:35;;;;;;;;;;;;;;;12.37;90.99;94454.22;10495395;28;2129;-73
2023/04/01 09:29:38;;;;;;;;;;;;;;;11.97;91.89;94467.00;10515229;28;2047;-73
2023/04/01 09:34:40;;;;;;;;;;;;;;;12.59;86.59;94458.63;10513695;28;2073;-72
2023/04/01 09:39:43;;;;;;;;;;;;;;;12.37;88.15;94453.41;10515274;28;1946;-73
2023/04/01 09:44:45;;;;;;;;;;;;;;;12.70;84.00;94443.72;10512479;28;2028;-74
2023/04/01 09:49:48;;;;;;;;;;;;;;;12.74;84.20;94427.72;10510895;28;2002;-73
2023/04/01 09:54:53;;;;;;;;;;;;;;;13.04;82.11;94446.69;10523316;28;1865;-75
2023/04/01 09:59:56;;;;;;;;;;;;;;;12.77;81.59;94437.06;10524073;28;1671;-74
2023/04/01 10:04:59;;;;;;;;;;;;;;;12.30;83.93;94426.94;10528731;28;2122;-75
2023/04/01 10:10:03;;;;;;;;;;;;;;;12.70;82.69;94421.38;10519288;28;1957;-72
2023/04/01 10:15:05;;;;;;;;;;;;;;;12.31;84.03;94423.13;10526488;28;1982;-72
2023/04/01 10:20:08;;;;;;;;;;;;;;;12.74;83.88;94429.63;10513507;28;1963;-72
2023/04/01 10:25:10;;;;;;;;;;;;;;;13.05;82.56;94427.50;10515272;28;2056;-72
2023/04/01 10:30:13;;;;;;;;;;;;;;;13.17;79.05;94437.63;10509029;28;1986;-74
2023/04/01 10:35:15;;;;;;;;;;;;;;;13.05;83.16;94430.19;10513158;28;1989;-72
2023/04/01 10:40:18;;;;;;;;;;;;;;;12.90;83.35;94438.78;10494669;28;2009;-71
2023/04/01 10:45:21;;;;;;;;;;;;;;;12.88;82.21;94414.84;10510193;28;2038;-73
2023/04/01 10:50:24;;;;;;;;;;;;;;;12.33;91.63;94442.47;10510339;28;2083;-73
2023/04/01 10:55:27;;;;;;;;;;;;;;;12.22;94.15;94435.03;10515010;28;1951;-72
2023/04/01 11:00:35;;;;;;;;;;;;;;;11.86;98.21;94419.94;10492542;28;2051;-73
2023/04/01 11:05:37;;;;;;;;;;;;;;;11.32;100.00;94452.34;10512895;28;2038;-73
2023/04/01 11:10:40;;;;;;;;;;;;;;;10.62;100.00;94458.41;10512654;28;2085;-73
2023/04/01 11:15:42;;;;;;;;;;;;;;;10.46;100.00;94460.69;10509095;28;1960;-73
2023/04/01 11:20:45;;;;;;;;;;;;;;;10.66;100.00;94451.34;10514101;28;2033;-73
2023/04/01 11:25:49;;;;;;;;;;;;;;;10.65;100.00;94448.97;10502958;28;2058;-74
2023/04/01 11:31:01;;;;;;;;;;;;;;;11.47;100.00;94463.81;10520080;28;2074;-74
2023/04/01 11:36:06;;;;;;;;;;;;;;;11.57;100.00;94464.31;10516602;28;2061;-72
2023/04/01 11:41:08;;;;;;;;;;;;;;;11.05;100.00;94477.50;10521307;28;1997;-75
2023/04/01 11:46:10;;;;;;;;;;;;;;;10.79;100.00;94482.72;10523474;28;2068;-72
2023/04/01 11:51:13;;;;;;;;;;;;;;;10.19;100.00;94504.50;10527103;28;2045;-73
2023/04/01 11:56:15;;;;;;;;;;;;;;;9.68;100.00;94532.38;10530546;28;2100;-72
2023/04/01 12:01:19;;;;;;;;;;;;;;;9.19;100.00;94520.41;10516245;28;1964;-73
2023/04/01 12:06:22;;;;;;;;;;;;;;;8.94;100.00;94527.00;10505746;28;2080;-72
2023/04/01 12:11:25;;;;;;;;;;;;;;;8.91;100.00;94521.44;10522101;28;2130;-73
2023/04/01 12:16:28;;;;;;;;;;;;;;;8.65;100.00;94535.22;10520347;28;2088;-76
2023/04/01 12:21:30;;;;;;;;;;;;;;;8.60;100.00;94527.28;10517023;28;1927;-76
2023/04/01 12:26:33;;;;;;;;;;;;;;;8.37;100.00;94528.13;10519456;28;2002;-75
2023/04/01 12:31:36;;;;;;;;;;;;;;;8.23;100.00;94524.56;10523604;28;1959;-74
2023/04/01 12:36:39;;;;;;;;;;;;;;;8.29;100.00;94518.84;10518860;28;2082;-74
2023/04/01 12:41:41;;;;;;;;;;;;;;;8.22;100.00;94526.44;10523514;28;2134;-74
2023/04/01 12:46:44;;;;;;;;;;;;;;;8.19;100.00;94510.16;10517231;28;2064;-75
2023/04/01 12:51:46;;;;;;;;;;;;;;;8.08;100.00;94523.69;10510710;28;1986;-75
2023/04/01 12:56:49;;;;;;;;;;;;;;;8.10;100.00;94536.78;10515314;28;2019;-74
2023/04/01 13:01:52;;;;;;;;;;;;;;;8.03;100.00;94529.09;10513056;28;2124;-74
2023/04/01 13:06:56;;;;;;;;;;;;;;;7.95;100.00;94532.44;10522150;28;1975;-75
2023/04/01 13:11:58;;;;;;;;;;;;;;;7.91;100.00;94527.94;10516017;28;2113;-75
2023/04/01 13:17:02;;;;;;;;;;;;;;;7.93;100.00;94539.94;10524526;28;2109;-73
2023/04/01 13:22:05;;;;;;;;;;;;;;;7.91;100.00;94536.75;10522103;28;2054;-75
2023/04/01 13:27:08;;;;;;;;;;;;;;;7.96;100.00;94539.38;10520306;28;2094;-74
2023/04/01 13:32:11;;;;;;;;;;;;;;;8.05;100.00;94540.31;10515744;28;2062;-73
2023/04/01 13:37:14;;;;;;;;;;;;;;;8.17;100.00;94539.09;10517804;28;2139;-74
2023/04/01 13:42:16;;;;;;;;;;;;;;;8.08;100.00;94555.81;10519355;28;1970;-74
2023/04/01 13:47:20;;;;;;;;;;;;;;;7.90;100.00;94542.41;10530945;28;1943;-75
2023/04/01 13:52:26;;;;;;;;;;;;;;;7.99;100.00;94554.84;10516240;28;2133;-75
2023/04/01 13:57:30;;;;;;;;;;;;;;;8.25;100.00;94541.13;10492878;28;1977;-75
2023/04/01 14:02:33;;;;;;;;;;;;;;;8.40;100.00;94540.97;10517565;28;2018;-75
2023/04/01 14:07:35;;;;;;;;;;;;;;;8.67;100.00;94542.97;10518645;28;2129;-75
2023/04/01 14:12:38;;;;;;;;;;;;;;;8.48;100.00;94532.28;10523974;28;1952;-75
2023/04/01 14:17:44;;;;;;;;;;;;;;;8.34;100.00;94539.41;10522182;28;1728;-76
2023/04/01 14:22:46;;;;;;;;;;;;;;;8.43;100.00;94536.91;10522302;28;2129;-74
2023/04/01 14:27:49;;;;;;;;;;;;;;;8.50;100.00;94527.41;10519333;28;1931;-74
2023/04/01 14:32:53;;;;;;;;;;;;;;;8.58;100.00;94550.06;10522117;28;1985;-73
2023/04/01 14:37:56;;;;;;;;;;;;;;;8.79;100.00;94539.84;10515105;28;2066;-73
2023/04/01 14:42:59;;;;;;;;;;;;;;;8.72;100.00;94537.53;10499217;28;2079;-74
2023/04/01 14:48:03;;;;;;;;;;;;;;;8.89;100.00;94545.03;10519434;28;1943;-72
2023/04/01 14:53:05;;;;;;;;;;;;;;;8.91;100.00;94549.03;10517577;28;1968;-73
2023/04/01 14:58:09;;;;;;;;;;;;;;;9.15;100.00;94548.09;10514851;28;1989;-75
2023/04/01 15:03:12;;;;;;;;;;;;;;;9.19;100.00;94539.16;10517913;28;1989;-75
2023/04/01 15:08:15;;;;;;;;;;;;;;;9.29;100.00;94548.13;10522166;28;2053;-72
2023/04/01 15:13:18;;;;;;;;;;;;;;;9.16;100.00;94539.78;10507291;28;1970;-72
2023/04/01 15:18:21;;;;;;;;;;;;;;;8.87;100.00;94547.22;10502383;28;1965;-72
2023/04/01 15:23:24;;;;;;;;;;;;;;;8.52;100.00;94546.66;10520011;28;2079;-73
2023/04/01 15:28:37;;;;;;;;;;;;;;;8.55;100.00;94550.66;10512236;28;2019;-72
2023/04/01 15:33:39;;;;;;;;;;;;;;;8.55;100.00;94561.38;10513729;28;1981;-73
2023/04/01 15:38:42;;;;;;;;;;;;;;;8.62;100.00;94567.94;10515388;28;2073;-74
2023/04/01 15:43:45;;;;;;;;;;;;;;;8.73;100.00;94571.28;10518723;28;2044;-74
2023/04/01 15:48:47;;;;;;;;;;;;;;;8.87;100.00;94572.13;10514794;28;1984;-74
2023/04/01 15:53:50;;;;;;;;;;;;;;;8.91;100.00;94564.31;10512307;28;1935;-73
2023/04/01 15:58:53;;;;;;;;;;;;;;;8.88;100.00;94560.31;10518086;28;2199;-76
2023/04/01 16:03:56;;;;;;;;;;;;;;;9.00;100.00;94561.75;10513309;28;1980;-77
2023/04/01 16:08:58;;;;;;;;;;;;;;;9.15;100.00;94562.28;10516301;28;1987;-74
2023/04/01 16:14:03;;;;;;;;;;;;;;;9.14;100.00;94574.09;10499185;28;1962;-72
2023/04/01 16:19:06;;;;;;;;;;;;;;;9.16;100.00;94582.66;10503147;28;2002;-74
2023/04/01 16:24:10;;;;;;;;;;;;;;;9.18;100.00;94561.72;10537275;27;2157;-74
2023/04/01 16:29:15;;;;;;;;;;;;;;;9.20;100.00;94556.84;10518593;28;2165;-75
2023/04/01 16:34:18;;;;;;;;;;;;;;;9.04;100.00;94562.78;10514494;28;2032;-75
2023/04/01 16:39:22;;;;;;;;;;;;;;;8.99;100.00;94563.63;10499639;28;1994;-76
2023/04/01 16:44:25;;;;;;;;;;;;;;;8.87;100.00;94563.28;10522916;28;2050;-75
2023/04/01 16:49:29;;;;;;;;;;;;;;;8.84;100.00;94563.84;10518593;28;2086;-73
2023/04/01 16:54:32;;;;;;;;;;;;;;;8.79;100.00;94582.72;10513480;28;2205;-73
2023/04/01 16:59:35;;;;;;;;;;;;;;;8.71;100.00;94573.44;10520553;28;2103;-75
2023/04/01 17:04:38;;;;;;;;;;;;;;;8.77;100.00;94591.03;10516174;28;2197;-74
2023/04/01 17:09:40;;;;;;;;;;;;;;;8.64;100.00;94581.84;10518874;28;2135;-74
2023/04/01 17:14:43;;;;;;;;;;;;;;;8.60;100.00;94596.13;10516836;28;2188;-74
2023/04/01 17:19:45;;;;;;;;;;;;;;;8.59;100.00;94589.97;10519958;28;2178;-74
2023/04/01 17:24:50;;;;;;;;;;;;;;;8.51;100.00;94593.28;10519750;28;1967;-74
2023/04/01 17:29:52;;;;;;;;;;;;;;;8.44;100.00;94598.19;10517345;28;2129;-77
2023/04/01 17:34:55;;;;;;;;;;;;;;;8.39;100.00;94596.38;10515264;28;2136;-75
2023/04/01 17:40:00;;;;;;;;;;;;;;;8.40;100.00;94605.22;10519840;28;1962;-73
2023/04/01 17:45:03;;;;;;;;;;;;;;;8.34;100.00;94609.81;10522369;28;2054;-74
2023/04/01 17:50:06;;;;;;;;;;;;;;;8.30;100.00;94611.47;10517574;28;1935;-73
2023/04/01 17:55:08;;;;;;;;;;;;;;;8.30;100.00;94618.69;10515766;28;2085;-75
2023/04/01 18:00:11;;;;;;;;;;;;;;;8.31;100.00;94614.94;10515259;28;2023;-76
2023/04/01 18:05:17;;;;;;;;;;;;;;;8.32;100.00;94622.69;10522333;28;2014;-75
2023/04/01 18:10:23;;;;;;;;;;;;;;;8.31;100.00;94620.28;10520683;28;2121;-76
2023/04/01 18:15:27;;;;;;;;;;;;;;;8.30;100.00;94632.09;10518605;28;2068;-74
2023/04/01 18:20:30;;;;;;;;;;;;;;;8.44;100.00;94645.59;10538570;28;2077;-76
2023/04/01 18:25:33;;;;;;;;;;;;;;;8.39;100.00;94631.19;10524032;28;1696;-74
2023/04/01 18:30:35;;;;;;;;;;;;;;;8.33;100.00;94644.88;10525755;28;2038;-75
2023/04/01 18:35:38;;;;;;;;;;;;;;;8.22;100.00;94649.59;10520907;28;2085;-76
2023/04/01 18:40:42;;;;;;;;;;;;;;;8.06;100.00;94656.19;10522968;28;1580;-76
2023/04/01 18:45:45;;;;;;;;;;;;;;;7.90;100.00;94652.09;10525954;28;1631;-77
2023/04/01 18:50:47;;;;;;;;;;;;;;;7.84;100.00;94649.47;10524684;28;1906;-75
2023/04/01 18:55:50;;;;;;;;;;;;;;;7.80;100.00;94666.34;10504967;28;1718;-76
2023/04/01 19:01:03;;;;;;;;;;;;;;;7.82;100.00;94670.38;10518690;28;1838;-73
2023/04/01 19:06:15;;;;;;;;;;;;;;;7.91;100.00;94683.91;10523062;28;1614;-74
2023/04/01 19:11:17;;;;;;;;;;;;;;;7.96;100.00;94685.75;10524845;28;1975;-75
2023/04/01 19:16:23;;;;;;;;;;;;;;;7.98;100.00;94684.38;10519097;28;2105;-75
2023/04/01 19:21:26;;;;;;;;;;;;;;;7.93;100.00;94697.81;10525584;28;1685;-76
2023/04/01 19:26:29;;;;;;;;;;;;;;;7.95;100.00;94702.88;10527378;28;2063;-75
2023/04/01 19:31:31;;;;;;;;;;;;;;;7.87;100.00;94706.97;10518256;28;2108;-75
2023/04/01 19:36:34;;;;;;;;;;;;;;;7.81;100.00;94727.59;10517363;28;1994;-76
2023/04/01 19:41:37;;;;;;;;;;;;;;;7.73;100.00;94732.78;10519604;28;1787;-75
2023/04/01 19:46:39;;;;;;;;;;;;;;;7.73;100.00;94724.75;10519053;28;2073;-73
2023/04/01 19:51:43;;;;;;;;;;;;;;;7.62;100.00;94726.69;10524572;28;1790;-75
2023/04/01 19:56:45;;;;;;;;;;;;;;;7.59;100.00;94728.06;10524227;28;2140;-76
2023/04/01 20:01:48;;;;;;;;;;;;;;;7.48;100.00;94729.22;10531396;28;2030;-75
2023/04/01 20:06:51;;;;;;;;;;;;;;;7.43;100.00;94737.28;10527970;28;1910;-75
2023/04/01 20:11:54;;;;;;;;;;;;;;;7.36;100.00;94739.47;10526701;28;1576;-77
2023/04/01 20:16:57;;;;;;;;;;;;;;;7.26;100.00;94755.59;10526447;28;2125;-78
2023/04/01 20:22:01;;;;;;;;;;;;;;;7.18;100.00;94748.13;10531608;28;1787;-78
2023/04/01 20:27:03;;;;;;;;;;;;;;;7.20;100.00;94748.69;10533837;28;1971;-74
2023/04/01 20:32:16;;;;;;;;;;;;;;;7.27;100.00;94752.63;10529351;28;2156;-74
2023/04/01 20:37:19;;;;;;;;;;;;;;;7.28;100.00;94759.56;10528779;28;1791;-74
2023/04/01 20:42:22;;;;;;;;;;;;;;;7.28;100.00;94754.22;10531358;28;2142;-74
2023/04/01 20:47:25;;;;;;;;;;;;;;;7.35;100.00;94761.94;10533066;28;1902;-76
2023/04/01 20:52:27;;;;;;;;;;;;;;;7.28;100.00;94759.56;10529775;28;2089;-75
2023/04/01 20:57:30;;;;;;;;;;;;;;;7.32;100.00;94765.19;10512775;28;2082;-75
2023/04/01 21:02:33;;;;;;;;;;;;;;;7.34;100.00;94756.88;10520960;28;2201;-76
2023/04/01 21:07:36;;;;;;;;;;;;;;;7.30;100.00;94767.31;10528384;28;2086;-74
2023/04/01 21:12:39;;;;;;;;;;;;;;;7.29;100.00;94776.41;10529158;28;2014;-76
2023/04/01 21:17:42;;;;;;;;;;;;;;;7.26;100.00;94772.44;10521496;28;2043;-76
2023/04/01 21:22:45;;;;;;;;;;;;;;;7.29;100.00;94776.41;10527186;28;1906;-76
2023/04/01 21:27:47;;;;;;;;;;;;;;;7.29;100.00;94781.75;10520518;28;2063;-77
2023/04/01 21:32:50;;;;;;;;;;;;;;;7.25;100.00;94786.88;10521831;28;1764;-75
2023/04/01 21:37:52;;;;;;;;;;;;;;;7.32;100.00;94794.59;10525638;28;2002;-76
2023/04/01 21:42:55;;;;;;;;;;;;;;;7.30;100.00;94794.84;10520158;28;1751;-74
2023/04/01 21:47:58;;;;;;;;;;;;;;;7.31;100.00;94795.63;10528601;28;2032;-76
2023/04/01 21:53:00;;;;;;;;;;;;;;;7.30;100.00;94802.06;10523930;28;1638;-74
2023/04/01 21:58:03;;;;;;;;;;;;;;;7.34;100.00;94813.03;10528225;28;2010;-73
2023/04/01 22:03:06;;;;;;;;;;;;;;;7.30;100.00;94805.53;10495483;28;1962;-73
2023/04/01 22:08:26;;;;;;;;;;;;;;;7.41;100.00;94814.31;10509895;28;2038;-75
2023/04/01 22:13:29;;;;;;;;;;;;;;;7.39;100.00;94827.16;10515774;28;1951;-74
2023/04/01 22:18:33;;;;;;;;;;;;;;;7.36;100.00;94827.69;10517074;28;1982;-75
2023/04/01 22:23:36;;;;;;;;;;;;;;;7.38;100.00;94830.09;10516122;28;2061;-74
2023/04/01 22:28:48;;;;;;;;;;;;;;;7.38;100.00;94838.09;10517547;28;2107;-73
2023/04/01 22:33:52;;;;;;;;;;;;;;;7.33;100.00;94833.59;10516202;28;1973;-73
2023/04/01 22:38:56;;;;;;;;;;;;;;;7.45;100.00;94818.03;10512861;28;2045;-74
2023/04/01 22:43:58;;;;;;;;;;;;;;;7.41;100.00;94826.88;10517832;28;2060;-74
2023/04/01 22:49:01;;;;;;;;;;;;;;;7.44;100.00;94837.81;10514898;28;2042;-73
2023/04/01 22:54:04;;;;;;;;;;;;;;;7.33;100.00;94830.94;10519951;28;2263;-74
2023/04/01 22:59:07;;;;;;;;;;;;;;;7.13;100.00;94833.72;10514643;28;2006;-73
2023/04/01 23:04:09;;;;;;;;;;;;;;;7.18;100.00;94833.66;10517928;28;2014;-73
2023/04/01 23:09:11;;;;;;;;;;;;;;;7.15;100.00;94835.03;10513082;28;1955;-73
2023/04/01 23:14:18;;;;;;;;;;;;;;;7.16;100.00;94839.28;10511687;28;1927;-74
2023/04/01 23:19:21;;;;;;;;;;;;;;;7.14;100.00;94848.66;10516160;28;2140;-73
2023/04/01 23:24:26;;;;;;;;;;;;;;;7.18;100.00;94844.34;10508867;28;2002;-73
2023/04/01 23:29:29;;;;;;;;;;;;;;;7.14;100.00;94856.69;10509400;28;2094;-73
2023/04/01 23:34:32;;;;;;;;;;;;;;;7.17;100.00;94864.16;10512182;28;2054;-73
2023/04/01 23:39:35;;;;;;;;;;;;;;;7.07;100.00;94864.19;10512135;28;2119;-75
2023/04/01 23:44:37;;;;;;;;;;;;;;;7.08;100.00;94874.63;10507675;28;2044;-77
2023/04/01 23:49:40;;;;;;;;;;;;;;;7.07;100.00;94866.88;10515754;28;1980;-78
2023/04/01 23:54:43;;;;;;;;;;;;;;;7.09;100.00;94862.84;10513190;28;1974;-76
2023/04/01 23:59:54;;;;;;;;;;;;;;;7.10;100.00;94869.00;10522787;28;1927;-74
